Time;durP1;ratioP1;P1;durP2;ratioP2;P2;SDS_P1;SDS_P2;PMS_P1;PMS_P2;Temp;Humidity;BMP_temperature;BMP_pressure;BME280_temperature;BME280_humidity;BME280_pressure;Samples;Min_cycle;Max_cycle;Signal;HPM_P1;HPM_P2
2023/12/17 00:02:13;;;;;;;11.20;8.40;;;;;;;6.47;90.72;101478.19;131264;1257;106898;-86
2023/12/17 00:05:18;;;;;;;13.50;8.70;;;;;;;6.48;90.60;101472.83;131380;1256;106976;-85
2023/12/17 00:08:24;;;;;;;10.20;7.20;;;;;;;6.46;90.73;101477.55;131431;1267;108587;-86
2023/12/17 00:11:30;;;;;;;13.00;7.20;;;;;;;6.45;90.72;101477.80;131573;1251;107724;-86
2023/12/17 00:14:35;;;;;;;12.40;8.20;;;;;;;6.46;90.83;101476.09;131549;1251;106469;-86
2023/12/17 00:17:41;;;;;;;10.60;7.70;;;;;;;6.51;90.69;101478.48;131437;1251;108146;-85
2023/12/17 00:20:49;;;;;;;11.20;8.50;;;;;;;6.55;90.85;101472.39;131424;1251;108603;-85
2023/12/17 00:23:54;;;;;;;13.50;8.20;;;;;;;6.59;90.71;101464.19;131292;1251;107776;-86
2023/12/17 00:27:00;;;;;;;14.30;8.10;;;;;;;6.58;90.59;101456.84;131288;1251;106370;-86
2023/12/17 00:30:07;;;;;;;14.00;7.20;;;;;;;6.55;90.84;101448.70;131281;1251;108656;-87
2023/12/17 00:33:13;;;;;;;14.80;8.80;;;;;;;6.45;90.80;101433.94;131413;1253;106465;-86
2023/12/17 00:36:18;;;;;;;15.90;9.20;;;;;;;6.54;90.83;101445.93;131266;1254;108600;-86
2023/12/17 00:39:24;;;;;;;12.70;8.30;;;;;;;6.55;91.00;101443.39;131379;1257;105420;-86
2023/12/17 00:42:29;;;;;;;13.80;8.80;;;;;;;6.59;90.80;101438.56;131354;1256;108073;-86
2023/12/17 00:45:35;;;;;;;13.90;8.50;;;;;;;6.57;90.79;101443.08;131194;1255;106552;-86
2023/12/17 00:48:41;;;;;;;13.00;7.60;;;;;;;6.52;91.06;101436.14;131301;1257;109155;-86
2023/12/17 00:51:46;;;;;;;15.10;9.60;;;;;;;6.49;91.21;101434.92;131318;1251;106754;-86
2023/12/17 00:54:52;;;;;;;14.80;9.40;;;;;;;6.50;91.39;101443.88;131357;1257;107349;-85
2023/12/17 00:57:57;;;;;;;12.40;8.90;;;;;;;6.53;90.99;101452.35;131227;1264;106428;-85
2023/12/17 01:01:03;;;;;;;14.90;9.10;;;;;;;6.54;91.21;101448.95;131344;1251;108397;-85
2023/12/17 01:04:08;;;;;;;13.70;8.70;;;;;;;6.48;91.02;101458.85;131289;1251;108062;-85
2023/12/17 01:07:14;;;;;;;16.10;8.00;;;;;;;6.44;91.58;101470.59;131250;1251;106163;-85
2023/12/17 01:10:20;;;;;;;13.60;8.70;;;;;;;6.41;91.63;101472.02;131271;1257;106518;-85
2023/12/17 01:13:25;;;;;;;14.60;9.50;;;;;;;6.45;91.48;101481.48;131350;1256;108497;-85
2023/12/17 01:16:31;;;;;;;13.80;9.20;;;;;;;6.48;91.56;101468.89;131225;1251;108126;-85
2023/12/17 01:19:38;;;;;;;16.00;9.70;;;;;;;6.50;91.43;101458.36;131279;1251;108687;-86
2023/12/17 01:22:43;;;;;;;14.00;8.50;;;;;;;6.48;91.51;101449.44;131304;1267;107710;-85
2023/12/17 01:25:49;;;;;;;16.80;8.40;;;;;;;6.46;91.59;101436.88;131311;1251;107670;-87
2023/12/17 01:28:55;;;;;;;15.70;9.70;;;;;;;6.47;91.76;101434.73;131387;1257;107902;-86
2023/12/17 01:32:00;;;;;;;14.40;9.00;;;;;;;6.48;91.59;101431.26;131291;1252;108558;-86
2023/12/17 01:35:08;;;;;;;15.00;10.20;;;;;;;6.50;91.88;101434.16;131265;1257;107636;-86
2023/12/17 01:38:14;;;;;;;15.40;10.10;;;;;;;6.49;91.98;101436.31;131296;1251;107644;-86
2023/12/17 01:41:19;;;;;;;18.30;9.00;;;;;;;6.46;91.62;101441.83;131372;1251;106420;-86
2023/12/17 01:44:25;;;;;;;16.10;8.60;;;;;;;6.47;92.01;101453.45;131361;1251;108629;-86
2023/12/17 01:47:31;;;;;;;14.10;9.10;;;;;;;6.50;91.89;101450.94;131243;1251;107462;-86
2023/12/17 01:50:37;;;;;;;14.90;9.40;;;;;;;6.54;92.26;101451.09;131250;1251;108643;-85
2023/12/17 01:53:43;;;;;;;16.20;10.00;;;;;;;6.56;92.07;101445.30;131265;1256;108691;-86
2023/12/17 01:56:49;;;;;;;18.70;10.40;;;;;;;6.59;91.86;101444.23;131249;1256;108646;-86
2023/12/17 01:59:55;;;;;;;20.10;10.10;;;;;;;6.59;91.50;101440.86;131328;1257;106188;-85
2023/12/17 02:03:01;;;;;;;17.10;10.50;;;;;;;6.57;92.01;101446.98;131292;1256;107814;-85
2023/12/17 02:06:08;;;;;;;17.90;9.50;;;;;;;6.51;92.32;101451.80;131223;1251;107615;-85
2023/12/17 02:09:14;;;;;;;18.10;10.50;;;;;;;6.51;92.39;101453.55;131223;1257;108517;-84
2023/12/17 02:12:30;;;;;;;15.20;10.30;;;;;;;6.55;92.24;101446.20;131242;1257;108338;-83
2023/12/17 02:15:35;;;;;;;19.60;10.80;;;;;;;6.58;92.40;101442.46;131356;1253;108654;-84
2023/12/17 02:18:41;;;;;;;18.10;11.10;;;;;;;6.61;92.21;101438.25;131089;1254;190619;-84
2023/12/17 02:21:46;;;;;;;20.20;10.50;;;;;;;6.61;92.27;101423.89;131201;1253;106477;-84
2023/12/17 02:24:52;;;;;;;15.00;9.00;;;;;;;6.61;91.95;101409.61;131137;1256;107379;-83
2023/12/17 02:27:59;;;;;;;15.60;10.20;;;;;;;6.63;92.22;101403.66;131192;1252;107839;-83
2023/12/17 02:31:05;;;;;;;17.80;10.70;;;;;;;6.63;92.30;101409.63;131264;1257;108672;-85
2023/12/17 02:34:10;;;;;;;20.00;11.50;;;;;;;6.67;92.27;101413.42;131189;1256;106529;-83
2023/12/17 02:37:17;;;;;;;20.90;11.30;;;;;;;6.67;92.47;101412.55;131207;1255;106816;-82
2023/12/17 02:40:22;;;;;;;17.40;10.10;;;;;;;6.65;92.33;101409.70;131206;1255;109264;-82
2023/12/17 02:43:28;;;;;;;15.60;8.80;;;;;;;6.62;92.51;101410.60;131153;1256;108620;-82
2023/12/17 02:46:33;;;;;;;19.40;10.60;;;;;;;6.65;92.67;101403.86;131235;1256;107645;-83
2023/12/17 02:49:39;;;;;;;17.80;10.40;;;;;;;6.71;92.38;101401.38;131201;1253;107421;-83
2023/12/17 02:52:44;;;;;;;19.90;11.00;;;;;;;6.73;92.46;101409.34;131153;1257;106576;-83
2023/12/17 02:55:50;;;;;;;19.10;11.30;;;;;;;6.74;92.46;101413.86;131210;1258;107471;-83
2023/12/17 02:58:55;;;;;;;16.80;10.50;;;;;;;6.71;92.48;101423.81;131228;1257;108542;-83
2023/12/17 03:02:01;;;;;;;19.40;9.70;;;;;;;6.67;92.68;101418.03;130979;1253;106966;-82
2023/12/17 03:05:07;;;;;;;18.60;11.00;;;;;;;6.68;92.72;101419.01;131140;1254;108423;-82
2023/12/17 03:08:15;;;;;;;18.00;10.00;;;;;;;6.72;92.71;101415.79;131233;1257;106502;-82
2023/12/17 03:11:20;;;;;;;17.50;11.10;;;;;;;6.74;92.52;101412.67;131276;1258;107638;-82
2023/12/17 03:14:26;;;;;;;17.50;10.90;;;;;;;6.72;92.54;101408.52;131208;1251;107590;-82
2023/12/17 03:17:31;;;;;;;17.30;9.50;;;;;;;6.66;92.78;101418.08;131201;1256;107570;-82
2023/12/17 03:20:37;;;;;;;20.20;10.30;;;;;;;6.64;93.05;101420.70;131264;1252;106989;-82
2023/12/17 03:23:43;;;;;;;18.60;10.80;;;;;;;6.68;93.43;101411.78;131197;1267;106679;-81
2023/12/17 03:26:48;;;;;;;18.50;10.40;;;;;;;6.72;93.02;101405.70;131232;1251;108406;-82
2023/12/17 03:29:55;;;;;;;18.80;11.10;;;;;;;6.75;93.15;101417.55;131325;1251;107764;-82
2023/12/17 03:33:00;;;;;;;17.20;11.10;;;;;;;6.75;93.28;101427.63;131236;1251;107711;-81
2023/12/17 03:36:08;;;;;;;16.60;10.10;;;;;;;6.75;92.92;101436.27;131254;1253;107680;-82
2023/12/17 03:39:14;;;;;;;19.20;9.60;;;;;;;6.75;92.88;101447.63;131214;1255;107740;-82
2023/12/17 03:42:19;;;;;;;16.50;10.30;;;;;;;6.76;93.22;101447.73;131252;1256;106650;-82
2023/12/17 03:45:25;;;;;;;19.90;11.40;;;;;;;6.80;93.20;101446.23;131194;1258;108661;-81
2023/12/17 03:48:30;;;;;;;18.40;10.60;;;;;;;6.81;93.14;101437.63;131240;1267;108711;-83
2023/12/17 03:51:36;;;;;;;18.20;10.90;;;;;;;6.83;93.07;101439.67;131301;1251;107804;-83
2023/12/17 03:54:41;;;;;;;17.00;9.70;;;;;;;6.84;93.02;101437.11;131251;1253;108675;-83
2023/12/17 03:57:48;;;;;;;19.30;9.70;;;;;;;6.85;93.05;101428.58;131266;1251;108419;-84
2023/12/17 04:00:54;;;;;;;21.00;10.90;;;;;;;6.84;93.21;101423.98;131248;1251;109135;-82
2023/12/17 04:03:59;;;;;;;17.90;10.50;;;;;;;6.91;93.11;101419.70;131270;1255;107823;-83
2023/12/17 04:07:05;;;;;;;17.60;10.40;;;;;;;6.95;93.16;101404.58;131282;1251;108771;-82
2023/12/17 04:10:11;;;;;;;20.80;12.00;;;;;;;6.96;93.16;101397.96;131205;1257;107217;-83
2023/12/17 04:13:17;;;;;;;17.30;10.40;;;;;;;6.97;93.00;101405.50;131236;1255;108680;-84
2023/12/17 04:16:22;;;;;;;16.70;10.00;;;;;;;6.92;93.12;101411.63;131298;1256;107698;-83
2023/12/17 04:19:28;;;;;;;18.80;10.30;;;;;;;6.90;93.23;101407.35;131249;1253;108603;-82
2023/12/17 04:22:33;;;;;;;16.90;10.40;;;;;;;6.93;93.40;101402.90;131336;1251;107681;-82
2023/12/17 04:25:39;;;;;;;16.00;10.30;;;;;;;6.96;93.40;101402.02;131268;1251;107752;-82
2023/12/17 04:28:44;;;;;;;18.20;10.00;;;;;;;6.99;93.28;101394.75;131275;1256;107267;-82
2023/12/17 04:31:50;;;;;;;15.50;9.40;;;;;;;7.02;93.30;101395.23;131177;1257;108336;-82
2023/12/17 04:34:56;;;;;;;16.10;10.30;;;;;;;7.06;93.11;101395.83;131266;1252;108708;-83
2023/12/17 04:38:01;;;;;;;20.60;10.80;;;;;;;7.11;93.15;101394.84;131196;1251;107570;-82
2023/12/17 04:41:07;;;;;;;16.70;10.60;;;;;;;7.11;93.27;101393.39;131244;1251;107875;-82
2023/12/17 04:44:13;;;;;;;18.60;11.20;;;;;;;7.07;93.65;101395.05;131280;1251;108939;-83
2023/12/17 04:47:19;;;;;;;17.40;9.90;;;;;;;7.02;93.50;101397.16;131202;1256;107398;-84
2023/12/17 04:50:24;;;;;;;18.30;9.40;;;;;;;7.01;93.51;101396.86;131218;1257;106570;-84
2023/12/17 04:53:30;;;;;;;18.40;9.90;;;;;;;7.09;93.80;101403.05;131172;1257;107578;-84
2023/12/17 04:56:36;;;;;;;16.70;10.90;;;;;;;7.11;93.68;101395.88;131380;1256;107188;-82
2023/12/17 04:59:41;;;;;;;20.70;10.90;;;;;;;7.10;93.73;101401.43;131174;1256;108691;-82
2023/12/17 05:02:47;;;;;;;18.20;11.80;;;;;;;7.11;93.48;101404.92;131278;1251;108531;-82
2023/12/17 05:05:52;;;;;;;50.30;23.70;;;;;;;7.08;94.08;101406.86;131277;1251;107695;-81
2023/12/17 05:08:58;;;;;;;31.10;16.90;;;;;;;7.04;94.06;101406.76;131194;1256;106424;-81
2023/12/17 05:12:04;;;;;;;32.30;19.50;;;;;;;7.04;94.37;101415.95;131356;1252;108355;-82
2023/12/17 05:15:10;;;;;;;25.70;17.40;;;;;;;7.04;94.67;101417.40;131301;1253;108740;-81
2023/12/17 05:18:16;;;;;;;23.30;12.80;;;;;;;7.03;94.94;101415.53;131290;1251;108521;-82
2023/12/17 05:21:21;;;;;;;17.60;11.30;;;;;;;7.01;95.00;101421.45;131268;1250;108511;-82
2023/12/17 05:24:27;;;;;;;20.80;12.00;;;;;;;6.96;95.36;101417.94;131231;1256;107661;-82
2023/12/17 05:27:32;;;;;;;20.90;12.40;;;;;;;6.96;95.42;101409.98;131267;1257;107509;-83
2023/12/17 05:30:38;;;;;;;22.80;13.10;;;;;;;6.98;95.36;101402.23;131265;1252;108709;-82
2023/12/17 05:33:46;;;;;;;23.70;13.40;;;;;;;6.99;95.23;101409.59;131341;1251;107434;-85
2023/12/17 05:36:51;;;;;;;20.10;12.40;;;;;;;7.01;95.49;101401.52;131435;1251;108618;-86
2023/12/17 05:39:57;;;;;;;16.40;9.90;;;;;;;7.01;95.46;101402.55;131549;1252;106677;-85
2023/12/17 05:43:03;;;;;;;25.60;15.80;;;;;;;7.01;95.69;101400.80;131346;1252;108565;-81
2023/12/17 05:46:08;;;;;;;25.60;14.80;;;;;;;7.04;95.88;101408.73;133358;1251;107578;-88
2023/12/17 05:49:14;;;;;;;23.20;13.90;;;;;;;7.07;95.91;101407.30;131841;1251;108616;-88
2023/12/17 05:52:19;;;;;;;93.10;38.10;;;;;;;7.09;95.90;101412.46;131655;1251;107789;-89
2023/12/17 05:55:25;;;;;;;152.80;63.70;;;;;;;7.10;95.67;101405.70;131650;1251;106311;-89
2023/12/17 05:58:31;;;;;;;251.10;106.20;;;;;;;7.11;96.31;101402.83;131531;1251;106385;-88
2023/12/17 06:01:37;;;;;;;259.80;125.00;;;;;;;7.13;96.60;101399.69;131600;1253;107611;-89
2023/12/17 06:04:43;;;;;;;249.70;114.90;;;;;;;7.18;96.05;101399.81;131714;1251;108492;-89
2023/12/17 06:07:48;;;;;;;277.50;120.40;;;;;;;7.21;96.41;101402.31;131699;1253;106613;-89
2023/12/17 06:10:54;;;;;;;162.40;71.30;;;;;;;7.20;96.43;101401.31;131665;1256;107532;-89
2023/12/17 06:13:59;;;;;;;343.40;170.20;;;;;;;7.19;96.50;101403.83;131633;1251;107545;-86
2023/12/17 06:17:05;;;;;;;173.20;76.10;;;;;;;7.22;96.63;101408.61;131454;1256;107523;-86
2023/12/17 06:20:12;;;;;;;218.60;94.40;;;;;;;7.24;96.48;101414.66;131505;1256;107250;-88
2023/12/17 06:23:18;;;;;;;119.10;55.10;;;;;;;7.23;96.54;101415.09;131571;1256;108620;-88
2023/12/17 06:26:24;;;;;;;57.10;30.90;;;;;;;7.20;96.67;101416.52;131517;1253;108359;-87
2023/12/17 06:29:29;;;;;;;73.00;37.60;;;;;;;7.17;97.18;101425.54;131742;1253;108663;-87
2023/12/17 06:32:35;;;;;;;53.20;30.10;;;;;;;7.15;97.47;101422.48;131598;1256;106724;-87
2023/12/17 06:35:41;;;;;;;30.40;16.90;;;;;;;7.17;97.05;101417.96;131511;1251;108982;-88
2023/12/17 06:38:47;;;;;;;22.70;14.00;;;;;;;7.17;97.33;101418.14;131617;1251;107586;-88
2023/12/17 06:41:53;;;;;;;24.50;13.60;;;;;;;7.12;97.49;101423.95;131637;1251;107706;-88
2023/12/17 06:44:58;;;;;;;272.80;123.10;;;;;;;7.08;98.00;101433.94;131705;1255;107111;-88
2023/12/17 06:48:04;;;;;;;232.10;124.90;;;;;;;7.08;97.91;101441.87;131641;1256;108655;-88
2023/12/17 06:51:11;;;;;;;43.80;25.40;;;;;;;7.11;97.79;101447.23;131582;1256;107214;-88
2023/12/17 06:54:17;;;;;;;25.70;15.50;;;;;;;7.16;97.39;101454.30;131395;1251;108578;-87
2023/12/17 06:57:24;;;;;;;19.90;12.30;;;;;;;7.18;97.54;101451.69;131562;1256;108763;-88
2023/12/17 07:00:29;;;;;;;21.90;12.80;;;;;;;7.21;97.53;101451.33;131502;1256;108608;-87
2023/12/17 07:03:35;;;;;;;21.70;12.80;;;;;;;7.24;97.63;101459.41;131611;1252;106229;-87
2023/12/17 07:06:40;;;;;;;30.20;16.60;;;;;;;7.26;97.75;101466.38;131625;1251;109017;-87
2023/12/17 07:09:46;;;;;;;31.30;16.90;;;;;;;7.27;97.79;101469.87;131635;1253;106181;-88
2023/12/17 07:12:52;;;;;;;20.40;13.30;;;;;;;7.28;97.26;101477.91;131667;1251;107734;-88
2023/12/17 07:15:58;;;;;;;29.80;17.40;;;;;;;7.32;97.50;101482.08;131602;1251;108242;-88
2023/12/17 07:19:03;;;;;;;34.60;17.70;;;;;;;7.36;97.57;101486.95;131649;1251;106380;-88
2023/12/17 07:22:09;;;;;;;30.90;15.40;;;;;;;7.38;97.31;101489.84;131773;1251;108779;-88
2023/12/17 07:25:14;;;;;;;21.30;12.30;;;;;;;7.38;97.61;101504.20;131690;1250;107472;-88
2023/12/17 07:28:21;;;;;;;24.60;13.80;;;;;;;7.32;98.27;101499.59;131869;1253;107674;-85
2023/12/17 07:31:27;;;;;;;25.90;14.10;;;;;;;7.28;98.19;101519.89;131670;1255;107766;-88
2023/12/17 07:34:32;;;;;;;27.80;15.90;;;;;;;7.25;98.71;101529.09;131447;1255;108420;-86
2023/12/17 07:37:38;;;;;;;38.70;19.50;;;;;;;7.24;98.56;101533.60;131311;1251;106775;-86
2023/12/17 07:40:44;;;;;;;21.70;14.00;;;;;;;7.25;98.65;101539.69;131528;1254;107812;-88
2023/12/17 07:43:49;;;;;;;25.70;15.20;;;;;;;7.23;98.62;101546.60;131289;1251;108554;-89
2023/12/17 07:46:55;;;;;;;42.00;23.70;;;;;;;7.20;98.68;101545.39;131227;1255;108699;-85
2023/12/17 07:50:01;;;;;;;49.40;27.40;;;;;;;7.23;98.91;101548.33;131369;1255;107683;-86
2023/12/17 07:53:06;;;;;;;64.30;33.70;;;;;;;7.29;98.47;101549.69;131409;1255;108383;-86
2023/12/17 07:56:12;;;;;;;50.20;25.60;;;;;;;7.33;98.24;101554.06;131870;1251;108270;-86
2023/12/17 07:59:18;;;;;;;96.10;42.90;;;;;;;7.36;98.61;101552.27;131573;1251;107302;-86
2023/12/17 08:02:24;;;;;;;127.40;56.20;;;;;;;7.36;98.80;101552.25;131328;1252;107695;-88
2023/12/17 08:05:29;;;;;;;56.90;27.30;;;;;;;7.41;98.88;101553.20;131460;1253;108662;-89
2023/12/17 08:08:35;;;;;;;116.70;51.40;;;;;;;7.45;98.62;101558.75;131522;1256;107090;-88
2023/12/17 08:11:40;;;;;;;35.20;18.00;;;;;;;7.45;98.84;101562.30;131500;1256;107597;-88
2023/12/17 08:14:47;;;;;;;101.00;43.40;;;;;;;7.40;98.82;101561.08;131596;1256;108772;-87
2023/12/17 08:17:52;;;;;;;95.50;43.70;;;;;;;7.42;98.58;101565.67;131677;1251;107331;-87
2023/12/17 08:20:58;;;;;;;162.70;74.30;;;;;;;7.47;98.80;101554.92;131672;1251;106568;-87
2023/12/17 08:24:04;;;;;;;101.20;48.30;;;;;;;7.52;98.83;101554.62;131587;1251;107500;-87
2023/12/17 08:27:10;;;;;;;115.30;54.20;;;;;;;7.52;99.00;101547.69;131402;1255;107634;-86
2023/12/17 08:30:17;;;;;;;173.00;84.40;;;;;;;7.53;98.92;101554.91;131545;1253;107688;-87
2023/12/17 08:33:23;;;;;;;188.50;87.10;;;;;;;7.55;99.09;101565.39;131293;1255;107695;-87
2023/12/17 08:36:28;;;;;;;430.40;205.50;;;;;;;7.56;98.69;101567.78;131598;1251;106277;-88
2023/12/17 08:39:34;;;;;;;174.80;78.10;;;;;;;7.61;98.88;101568.33;131608;1253;107482;-80
2023/12/17 08:42:40;;;;;;;56.60;34.00;;;;;;;7.61;98.72;101560.37;131277;1255;108567;-83
2023/12/17 08:45:45;;;;;;;119.10;55.90;;;;;;;7.58;98.74;101560.72;131431;1256;107713;-84
2023/12/17 08:48:51;;;;;;;127.70;64.80;;;;;;;7.60;98.69;101557.46;131230;1255;108641;-84
2023/12/17 08:51:56;;;;;;;341.30;158.20;;;;;;;7.63;98.71;101564.64;131339;1253;107326;-84
2023/12/17 08:55:02;;;;;;;341.90;159.10;;;;;;;7.65;98.84;101565.98;131350;1251;107181;-84
2023/12/17 08:58:07;;;;;;;228.80;104.50;;;;;;;7.62;98.86;101559.80;131242;1256;109221;-84
2023/12/17 09:01:13;;;;;;;147.10;67.10;;;;;;;7.61;99.25;101555.05;131209;1256;108416;-84
2023/12/17 09:04:18;;;;;;;100.30;49.20;;;;;;;7.62;99.19;101548.95;131264;1251;107862;-86
2023/12/17 09:07:24;;;;;;;178.60;90.10;;;;;;;7.65;99.30;101545.92;131269;1251;106728;-86
2023/12/17 09:10:30;;;;;;;685.70;299.40;;;;;;;7.66;99.02;101546.40;131290;1256;108681;-86
2023/12/17 09:13:35;;;;;;;823.20;334.60;;;;;;;7.67;99.10;101546.48;131493;1254;108435;-87
2023/12/17 09:16:41;;;;;;;253.30;84.90;;;;;;;7.67;98.98;101549.69;131185;1253;106209;-84
2023/12/17 09:19:47;;;;;;;125.70;47.90;;;;;;;7.71;99.10;101543.08;131968;1256;106876;-85
2023/12/17 09:22:53;;;;;;;219.00;84.80;;;;;;;7.73;99.09;101543.80;131361;1251;107712;-85
2023/12/17 09:26:00;;;;;;;267.50;104.10;;;;;;;7.74;98.96;101547.30;131591;1251;108635;-84
2023/12/17 09:29:06;;;;;;;383.10;166.00;;;;;;;7.74;99.04;101553.49;131311;1255;106398;-84
2023/12/17 09:32:11;;;;;;;212.70;95.80;;;;;;;7.75;99.08;101553.59;131236;1255;107863;-86
2023/12/17 09:35:19;;;;;;;191.10;96.40;;;;;;;7.76;99.11;101556.02;131221;1254;107718;-85
2023/12/17 09:38:25;;;;;;;101.00;59.20;;;;;;;7.80;98.99;101557.84;131341;1263;107185;-85
2023/12/17 09:41:30;;;;;;;57.10;35.50;;;;;;;7.84;98.90;101557.92;131604;1256;106435;-87
2023/12/17 09:44:36;;;;;;;38.00;26.10;;;;;;;7.83;99.02;101562.46;131560;1254;106796;-87
2023/12/17 09:47:42;;;;;;;22.60;16.20;;;;;;;7.83;98.99;101559.27;131343;1256;106694;-85
2023/12/17 09:50:47;;;;;;;14.80;10.90;;;;;;;7.83;99.08;101552.37;131245;1254;106758;-86
2023/12/17 09:53:54;;;;;;;20.10;13.60;;;;;;;7.85;99.19;101548.64;131371;1251;107373;-86
2023/12/17 09:57:02;;;;;;;36.20;24.70;;;;;;;7.90;99.08;101548.88;131256;1255;107830;-86
2023/12/17 10:00:12;;;;;;;23.90;13.60;;;;;;;7.95;99.08;101546.38;131434;1253;107000;-85
2023/12/17 10:03:17;;;;;;;19.60;11.60;;;;;;;7.97;98.91;101543.83;131839;1255;107274;-85
2023/12/17 10:06:23;;;;;;;22.00;12.70;;;;;;;7.98;98.97;101543.56;131555;1251;106599;-85
2023/12/17 10:09:31;;;;;;;19.00;11.60;;;;;;;7.97;98.92;101545.95;131382;1256;107633;-86
2023/12/17 10:12:37;;;;;;;20.40;12.50;;;;;;;7.94;99.08;101541.37;131667;1254;107745;-90
2023/12/17 10:15:43;;;;;;;21.90;11.80;;;;;;;7.91;99.20;101533.21;131749;1257;107225;-90
2023/12/17 10:18:50;;;;;;;29.70;13.30;;;;;;;7.92;99.29;101529.47;131892;1254;109504;-90
2023/12/17 10:21:56;;;;;;;22.80;13.00;;;;;;;7.96;99.18;101529.16;131758;1254;107207;-89
2023/12/17 10:25:01;;;;;;;21.40;12.60;;;;;;;8.01;99.18;101517.62;132598;1251;107613;-90
2023/12/17 10:28:09;;;;;;;28.10;19.20;;;;;;;8.06;99.04;101523.67;132044;1251;108602;-90
2023/12/17 10:31:16;;;;;;;19.60;11.50;;;;;;;8.05;98.97;101523.90;131730;1253;107641;-91
2023/12/17 10:34:24;;;;;;;18.70;11.20;;;;;;;8.06;99.03;101528.48;131704;1253;107400;-91
2023/12/17 10:37:30;;;;;;;143.30;67.10;;;;;;;8.03;99.02;101516.48;131734;1256;107439;-90
2023/12/17 10:40:41;;;;;;;30.20;15.60;;;;;;;8.13;98.98;101521.98;131635;1251;107325;-91
2023/12/17 10:43:49;;;;;;;27.80;14.40;;;;;;;8.16;98.92;101516.58;131575;1253;105744;-90
2023/12/17 10:46:58;;;;;;;20.30;13.60;;;;;;;8.18;98.73;101516.45;131658;1253;107037;-90
2023/12/17 10:50:04;;;;;;;130.80;60.60;;;;;;;8.18;98.70;101507.23;131638;1254;107430;-86
2023/12/17 10:53:10;;;;;;;425.40;184.60;;;;;;;8.19;98.78;101503.63;131437;1253;107410;-90
2023/12/17 10:56:17;;;;;;;436.40;184.80;;;;;;;8.21;98.61;101502.42;131300;1255;107410;-93
2023/12/17 10:59:29;;;;;;;574.40;244.80;;;;;;;8.23;98.79;101497.70;131681;1251;108546;-91
2023/12/17 11:02:38;;;;;;;1691.40;749.20;;;;;;;8.23;98.68;101498.17;131391;1255;107124;-90
2023/12/17 11:05:58;;;;;;;681.60;263.20;;;;;;;8.25;98.63;101506.73;131437;1256;106219;-90
2023/12/17 11:09:05;;;;;;;351.20;120.60;;;;;;;8.23;98.64;101512.73;131402;1251;108636;-90
2023/12/17 11:12:13;;;;;;;768.50;326.80;;;;;;;8.22;98.57;101511.97;131482;1253;106595;-90
2023/12/17 11:15:22;;;;;;;408.90;135.20;;;;;;;8.24;98.76;101512.10;131492;1255;108821;-91
2023/12/17 11:22:03;;;;;;;893.70;337.60;;;;;;;8.24;98.45;101502.08;127177;1291;636002;-91
2023/12/17 11:25:13;;;;;;;329.60;113.10;;;;;;;8.23;98.67;101497.17;130393;1268;107141;-92
2023/12/17 11:28:44;;;;;;;463.50;197.90;;;;;;;8.24;98.58;101497.24;130502;1267;107529;-90
2023/12/17 11:31:50;;;;;;;478.50;220.10;;;;;;;8.25;98.58;101501.28;130534;1264;108786;-88
2023/12/17 11:34:58;;;;;;;465.20;208.10;;;;;;;8.25;98.60;101501.26;130463;1265;232714;-91
2023/12/17 11:38:05;;;;;;;485.40;221.10;;;;;;;8.25;98.67;101504.11;131078;1261;107432;-91
2023/12/17 11:41:10;;;;;;;319.20;138.20;;;;;;;8.21;98.66;101506.36;130570;1263;107183;-89
2023/12/17 11:44:16;;;;;;;392.20;202.30;;;;;;;8.20;98.48;101512.98;130941;1262;107563;-89
2023/12/17 11:47:27;;;;;;;306.90;174.80;;;;;;;8.18;98.62;101508.99;130812;1265;107615;-92
2023/12/17 11:50:45;;;;;;;131.30;75.80;;;;;;;8.20;98.90;101509.44;130686;1265;107102;-89
2023/12/17 11:53:55;;;;;;;71.70;43.50;;;;;;;8.22;98.74;101505.57;130405;1268;108289;-89
2023/12/17 11:57:01;;;;;;;42.90;25.60;;;;;;;8.18;98.67;101509.70;130383;1265;107693;-86
2023/12/17 12:00:14;;;;;;;38.80;27.20;;;;;;;8.16;98.92;101512.04;130350;1265;108555;-86
2023/12/17 12:03:23;;;;;;;20.80;12.90;;;;;;;8.12;99.01;101519.55;130380;1265;108703;-86
2023/12/17 12:06:29;;;;;;;21.50;15.10;;;;;;;8.10;99.09;101517.41;130370;1262;107499;-84
2023/12/17 12:09:35;;;;;;;20.70;12.90;;;;;;;8.13;99.13;101520.22;130566;1263;107391;-79
2023/12/17 12:12:41;;;;;;;21.70;14.20;;;;;;;8.14;99.16;101524.20;130976;1260;107515;-86
2023/12/17 12:15:46;;;;;;;24.90;15.70;;;;;;;8.11;99.04;101525.11;130978;1260;107447;-84
2023/12/17 12:19:02;;;;;;;22.90;15.20;;;;;;;8.10;99.10;101518.77;131086;1260;107030;-84
2023/12/17 12:22:11;;;;;;;20.40;13.90;;;;;;;8.10;99.22;101510.11;130940;1259;107500;-91
2023/12/17 12:25:20;;;;;;;17.10;11.80;;;;;;;8.13;99.27;101509.40;131192;1260;107685;-85
2023/12/17 12:28:26;;;;;;;15.60;11.10;;;;;;;8.12;99.19;101508.57;130924;1270;107501;-85
2023/12/17 12:31:32;;;;;;;14.70;10.30;;;;;;;8.06;99.30;101508.41;130810;1258;106889;-85
2023/12/17 12:34:39;;;;;;;16.60;10.90;;;;;;;8.06;99.55;101508.44;130819;1260;108620;-86
2023/12/17 12:37:44;;;;;;;17.90;11.40;;;;;;;8.07;99.51;101505.20;130862;1254;107495;-86
2023/12/17 12:40:50;;;;;;;68.10;35.70;;;;;;;8.11;99.46;101503.52;130989;1258;109247;-86
2023/12/17 12:43:56;;;;;;;23.10;14.10;;;;;;;8.14;99.37;101500.09;130869;1267;107679;-87
2023/12/17 12:47:01;;;;;;;29.60;15.10;;;;;;;8.13;99.25;101504.79;130830;1258;107893;-88
2023/12/17 12:50:09;;;;;;;27.50;15.50;;;;;;;8.14;99.39;101507.73;130816;1256;108763;-87
2023/12/17 12:53:18;;;;;;;16.70;11.50;;;;;;;8.19;99.46;101505.97;130853;1256;107641;-86
2023/12/17 12:56:24;;;;;;;28.20;14.90;;;;;;;8.21;99.31;101502.44;130847;1258;107736;-86
2023/12/17 12:59:29;;;;;;;38.80;16.10;;;;;;;8.21;99.19;101496.20;131004;1262;108654;-87
2023/12/17 13:02:36;;;;;;;24.60;11.30;;;;;;;8.22;99.19;101489.42;130859;1256;108640;-87
2023/12/17 13:05:42;;;;;;;25.50;12.40;;;;;;;8.25;99.18;101494.16;131057;1258;107745;-94
2023/12/17 13:08:48;;;;;;;32.90;19.60;;;;;;;8.29;99.05;101494.50;130991;1255;107330;-89
2023/12/17 13:11:54;;;;;;;30.50;14.80;;;;;;;8.31;98.98;101487.41;130937;1259;106820;-90
2023/12/17 13:14:59;;;;;;;27.60;13.70;;;;;;;8.35;98.87;101487.62;130895;1258;106276;-92
2023/12/17 13:18:05;;;;;;;63.60;31.90;;;;;;;8.34;98.91;101480.62;130880;1268;107146;-91
2023/12/17 13:21:11;;;;;;;182.20;77.10;;;;;;;8.31;98.88;101473.95;130903;1259;108214;-88
2023/12/17 13:24:17;;;;;;;393.10;160.10;;;;;;;8.29;98.95;101467.16;130964;1258;106507;-88
2023/12/17 13:27:25;;;;;;;496.50;205.10;;;;;;;8.31;98.90;101453.40;131116;1259;108979;-89
2023/12/17 13:30:32;;;;;;;196.30;67.30;;;;;;;8.32;98.93;101444.45;131289;1258;108074;-89
2023/12/17 13:33:38;;;;;;;658.80;252.80;;;;;;;8.33;98.90;101444.55;131162;1259;107592;-91
2023/12/17 13:36:49;;;;;;;191.50;63.70;;;;;;;8.34;98.89;101451.95;130867;1256;108432;-87
2023/12/17 13:40:13;;;;;;;346.60;122.20;;;;;;;8.35;98.65;101444.56;131128;1259;109651;-93
2023/12/17 13:43:19;;;;;;;290.40;99.30;;;;;;;8.35;98.65;101439.06;131457;1254;107780;-86
2023/12/17 13:46:24;;;;;;;341.40;120.80;;;;;;;8.36;98.74;101441.45;131503;1264;108431;-89
2023/12/17 13:49:35;;;;;;;351.20;125.20;;;;;;;8.38;98.65;101444.52;131495;1254;107461;-91
2023/12/17 13:52:47;;;;;;;392.20;139.60;;;;;;;8.34;98.55;101442.31;132087;1251;108329;-92
2023/12/17 13:55:55;;;;;;;597.10;240.60;;;;;;;8.33;98.58;101436.88;131796;1254;107209;-87
2023/12/17 13:59:06;;;;;;;79.10;33.60;;;;;;;8.32;98.46;101444.42;131480;1253;107361;-88